Terminal Aerodrome Forecast
Issued by NWS

Home | Current Version | Previous Version | Text Only | Print | Product List | Glossary On
Versions: 1 2 3 4 5 6 7 8 9 10 11 12 13 14 15 16 17 18 19 20
000
FTUS46 KLOX 232300
TAFPRB
TAF
KPRB 232328Z 2400/2424 06009KT P6SM SCT250
     FM240400 VRB03KT P6SM SCT250
     FM242100 08008KT P6SM SKC=

USA.gov is the U.S. government's official web portal to all federal, state and local government web resources and services.